Main page

Airports :

Milan, Italy

Malpensa Airport

latitude: 45-37N, longitude: 008-44E, elevation: 234 m

Current weather observation

The report was made 38 minutes ago, at 02:50 UTC
Wind 5 kt from the North
Temperature 7°C
Humidity 93%
Pressure 1014 hPa
Visibility 10 km or more
Broken clouds at a height of 5000 ft
patches of fog

METAR: LIMC 220250Z 35005KT 9999 R35R/P1500N R17L/0750VP1500U R35L/P1500N BCFG BKN050 07/06 Q1014 NOSIG

Time: 05:28 (03:28 UTC)


The report was made 4 hours and 28 minutes ago, at 23:00 UTC
Forecast valid from 22 at 00 UTC to 23 at 06 UTC
Wind 5 kt from variable directions
Visibility 10 km or more
Scattered clouds at a height of 5000 ft
from 22 at 02 UTC to 22 at 07 UTC
Visibility: 2000 m
patches of fog

TAF: LIMC 212300Z 2200/2306 VRB05KT 9999 SCT050 TEMPO 2202/2207 2000 BCFG


Weather observations and forecasts of more than 4000 airports (METAR and TAF reports).

The available stations are represented by yellow and red dots on the map.

Hover mouse over dot to see the name of the station.

Then click to see weather observations and forecasts.

To change the map : click on the green buttons with a black cross to zoom in, on the green button with a dash to zoom out, or on the green arrows for adjacent maps.